sensor_id;sensor_type;location;lat;lon;timestamp;P1;durP1;ratioP1;P2;durP2;ratioP2
18947;SDS011;9607;51.600;7.558;2023-07-22T00:00:22;8.55;;;6.30;;
18947;SDS011;9607;51.600;7.558;2023-07-22T00:02:49;6.35;;;5.75;;
18947;SDS011;9607;51.600;7.558;2023-07-22T00:05:15;6.30;;;5.70;;
18947;SDS011;9607;51.600;7.558;2023-07-22T00:07:48;5.75;;;5.20;;
18947;SDS011;9607;51.600;7.558;2023-07-22T00:10:17;5.65;;;4.80;;
18947;SDS011;9607;51.600;7.558;2023-07-22T00:12:44;5.88;;;5.28;;
18947;SDS011;9607;51.600;7.558;2023-07-22T00:15:11;7.32;;;6.60;;
18947;SDS011;9607;51.600;7.558;2023-07-22T00:17:38;5.85;;;5.25;;
18947;SDS011;9607;51.600;7.558;2023-07-22T00:20:05;5.97;;;5.22;;
18947;SDS011;9607;51.600;7.558;2023-07-22T00:22:35;6.80;;;5.28;;
18947;SDS011;9607;51.600;7.558;2023-07-22T00:25:04;5.20;;;4.70;;
18947;SDS011;9607;51.600;7.558;2023-07-22T00:27:32;4.85;;;4.30;;
18947;SDS011;9607;51.600;7.558;2023-07-22T00:29:59;4.95;;;4.40;;
18947;SDS011;9607;51.600;7.558;2023-07-22T00:32:26;5.25;;;4.75;;
18947;SDS011;9607;51.600;7.558;2023-07-22T00:34:53;5.22;;;4.72;;
18947;SDS011;9607;51.600;7.558;2023-07-22T00:37:20;5.97;;;4.50;;
18947;SDS011;9607;51.600;7.558;2023-07-22T00:39:47;4.75;;;4.35;;
18947;SDS011;9607;51.600;7.558;2023-07-22T00:42:15;6.00;;;5.40;;
18947;SDS011;9607;51.600;7.558;2023-07-22T00:44:42;5.03;;;4.50;;
18947;SDS011;9607;51.600;7.558;2023-07-22T00:47:08;4.57;;;4.18;;
18947;SDS011;9607;51.600;7.558;2023-07-22T00:49:37;5.90;;;5.13;;
18947;SDS011;9607;51.600;7.558;2023-07-22T00:52:04;4.65;;;4.25;;
18947;SDS011;9607;51.600;7.558;2023-07-22T00:54:31;7.53;;;5.60;;
18947;SDS011;9607;51.600;7.558;2023-07-22T00:56:58;7.03;;;5.47;;
18947;SDS011;9607;51.600;7.558;2023-07-22T00:59:26;5.97;;;5.40;;
18947;SDS011;9607;51.600;7.558;2023-07-22T01:01:54;6.20;;;5.18;;
18947;SDS011;9607;51.600;7.558;2023-07-22T01:04:21;6.45;;;5.35;;
18947;SDS011;9607;51.600;7.558;2023-07-22T01:06:50;5.28;;;4.78;;
18947;SDS011;9607;51.600;7.558;2023-07-22T01:09:19;5.82;;;4.80;;
18947;SDS011;9607;51.600;7.558;2023-07-22T01:11:45;5.82;;;5.22;;
18947;SDS011;9607;51.600;7.558;2023-07-22T01:14:13;5.85;;;5.25;;
18947;SDS011;9607;51.600;7.558;2023-07-22T01:16:41;5.80;;;4.90;;
18947;SDS011;9607;51.600;7.558;2023-07-22T01:19:10;5.25;;;4.72;;
18947;SDS011;9607;51.600;7.558;2023-07-22T01:21:41;5.32;;;4.82;;
18947;SDS011;9607;51.600;7.558;2023-07-22T01:24:10;5.25;;;4.75;;
18947;SDS011;9607;51.600;7.558;2023-07-22T01:26:37;6.03;;;4.47;;
18947;SDS011;9607;51.600;7.558;2023-07-22T01:29:04;5.30;;;4.63;;
18947;SDS011;9607;51.600;7.558;2023-07-22T01:31:33;5.82;;;4.93;;
18947;SDS011;9607;51.600;7.558;2023-07-22T01:34:01;6.60;;;5.57;;
18947;SDS011;9607;51.600;7.558;2023-07-22T01:36:29;7.20;;;6.38;;
18947;SDS011;9607;51.600;7.558;2023-07-22T01:38:56;7.68;;;6.65;;
18947;SDS011;9607;51.600;7.558;2023-07-22T01:41:24;6.22;;;5.63;;
18947;SDS011;9607;51.600;7.558;2023-07-22T01:43:50;5.85;;;5.20;;
18947;SDS011;9607;51.600;7.558;2023-07-22T01:46:17;5.57;;;5.03;;
18947;SDS011;9607;51.600;7.558;2023-07-22T01:48:44;5.13;;;4.63;;
18947;SDS011;9607;51.600;7.558;2023-07-22T01:51:12;6.82;;;5.82;;
18947;SDS011;9607;51.600;7.558;2023-07-22T01:53:38;7.60;;;5.38;;
18947;SDS011;9607;51.600;7.558;2023-07-22T01:56:05;5.38;;;4.88;;
18947;SDS011;9607;51.600;7.558;2023-07-22T01:58:33;5.90;;;5.30;;
18947;SDS011;9607;51.600;7.558;2023-07-22T02:01:00;6.35;;;5.75;;
18947;SDS011;9607;51.600;7.558;2023-07-22T02:03:27;5.65;;;4.95;;
18947;SDS011;9607;51.600;7.558;2023-07-22T02:06:00;5.78;;;5.28;;
18947;SDS011;9607;51.600;7.558;2023-07-22T02:08:27;5.30;;;4.80;;
18947;SDS011;9607;51.600;7.558;2023-07-22T02:10:54;5.63;;;5.10;;
18947;SDS011;9607;51.600;7.558;2023-07-22T02:13:24;6.45;;;5.63;;
18947;SDS011;9607;51.600;7.558;2023-07-22T02:15:52;6.53;;;5.55;;
18947;SDS011;9607;51.600;7.558;2023-07-22T02:18:19;5.65;;;5.10;;
18947;SDS011;9607;51.600;7.558;2023-07-22T02:20:46;5.60;;;5.00;;
18947;SDS011;9607;51.600;7.558;2023-07-22T02:23:13;5.50;;;4.80;;
18947;SDS011;9607;51.600;7.558;2023-07-22T02:25:40;5.88;;;5.28;;
18947;SDS011;9607;51.600;7.558;2023-07-22T02:28:07;5.30;;;4.80;;
18947;SDS011;9607;51.600;7.558;2023-07-22T02:30:33;5.10;;;4.60;;
18947;SDS011;9607;51.600;7.558;2023-07-22T02:33:02;4.43;;;4.03;;
18947;SDS011;9607;51.600;7.558;2023-07-22T02:35:31;6.40;;;4.65;;
18947;SDS011;9607;51.600;7.558;2023-07-22T02:37:58;7.30;;;6.07;;
18947;SDS011;9607;51.600;7.558;2023-07-22T02:40:26;5.85;;;5.28;;
18947;SDS011;9607;51.600;7.558;2023-07-22T02:42:53;5.38;;;4.88;;
18947;SDS011;9607;51.600;7.558;2023-07-22T02:45:20;7.00;;;5.85;;
18947;SDS011;9607;51.600;7.558;2023-07-22T02:47:47;5.95;;;5.35;;
18947;SDS011;9607;51.600;7.558;2023-07-22T02:50:16;5.65;;;5.03;;
18947;SDS011;9607;51.600;7.558;2023-07-22T02:52:42;4.88;;;4.32;;
18947;SDS011;9607;51.600;7.558;2023-07-22T02:55:11;4.82;;;4.35;;
18947;SDS011;9607;51.600;7.558;2023-07-22T02:57:43;4.70;;;4.18;;
18947;SDS011;9607;51.600;7.558;2023-07-22T03:00:12;5.60;;;4.53;;
18947;SDS011;9607;51.600;7.558;2023-07-22T03:02:45;5.55;;;5.00;;
18947;SDS011;9607;51.600;7.558;2023-07-22T03:05:12;5.93;;;5.03;;
18947;SDS011;9607;51.600;7.558;2023-07-22T03:07:40;4.78;;;4.20;;
18947;SDS011;9607;51.600;7.558;2023-07-22T03:10:07;4.78;;;4.30;;
18947;SDS011;9607;51.600;7.558;2023-07-22T03:12:35;5.70;;;4.95;;
18947;SDS011;9607;51.600;7.558;2023-07-22T03:15:02;5.45;;;4.95;;
18947;SDS011;9607;51.600;7.558;2023-07-22T03:17:33;4.82;;;4.32;;
18947;SDS011;9607;51.600;7.558;2023-07-22T03:20:03;6.05;;;5.13;;
18947;SDS011;9607;51.600;7.558;2023-07-22T03:22:35;6.32;;;5.70;;
18947;SDS011;9607;51.600;7.558;2023-07-22T03:25:04;6.90;;;5.70;;
18947;SDS011;9607;51.600;7.558;2023-07-22T03:27:33;6.05;;;5.45;;
18947;SDS011;9607;51.600;7.558;2023-07-22T03:30:00;6.35;;;5.75;;
18947;SDS011;9607;51.600;7.558;2023-07-22T03:32:27;6.50;;;5.78;;
18947;SDS011;9607;51.600;7.558;2023-07-22T03:34:54;5.50;;;5.00;;
18947;SDS011;9607;51.600;7.558;2023-07-22T03:37:21;5.05;;;4.55;;
18947;SDS011;9607;51.600;7.558;2023-07-22T03:39:47;5.72;;;5.13;;
18947;SDS011;9607;51.600;7.558;2023-07-22T03:42:16;5.55;;;4.88;;
18947;SDS011;9607;51.600;7.558;2023-07-22T03:44:42;9.63;;;6.07;;
18947;SDS011;9607;51.600;7.558;2023-07-22T03:47:09;6.32;;;4.93;;
18947;SDS011;9607;51.600;7.558;2023-07-22T03:49:36;5.63;;;5.10;;
18947;SDS011;9607;51.600;7.558;2023-07-22T03:52:03;6.85;;;5.80;;
18947;SDS011;9607;51.600;7.558;2023-07-22T03:54:30;7.43;;;6.45;;
18947;SDS011;9607;51.600;7.558;2023-07-22T03:56:57;6.63;;;5.93;;
18947;SDS011;9607;51.600;7.558;2023-07-22T03:59:25;6.20;;;5.22;;
18947;SDS011;9607;51.600;7.558;2023-07-22T04:01:53;6.15;;;5.55;;
18947;SDS011;9607;51.600;7.558;2023-07-22T04:04:20;6.32;;;5.72;;
18947;SDS011;9607;51.600;7.558;2023-07-22T04:06:47;5.72;;;4.97;;
18947;SDS011;9607;51.600;7.558;2023-07-22T04:09:13;6.00;;;5.40;;
18947;SDS011;9607;51.600;7.558;2023-07-22T04:11:40;5.22;;;4.72;;
18947;SDS011;9607;51.600;7.558;2023-07-22T04:14:07;6.68;;;4.90;;
18947;SDS011;9607;51.600;7.558;2023-07-22T04:16:35;6.20;;;5.60;;
18947;SDS011;9607;51.600;7.558;2023-07-22T04:19:02;5.10;;;4.70;;
18947;SDS011;9607;51.600;7.558;2023-07-22T04:21:28;5.78;;;5.25;;
18947;SDS011;9607;51.600;7.558;2023-07-22T04:23:55;5.40;;;4.90;;
18947;SDS011;9607;51.600;7.558;2023-07-22T04:26:22;5.72;;;4.65;;
18947;SDS011;9607;51.600;7.558;2023-07-22T04:28:50;5.38;;;4.72;;
18947;SDS011;9607;51.600;7.558;2023-07-22T04:31:17;4.70;;;4.25;;
18947;SDS011;9607;51.600;7.558;2023-07-22T04:33:45;4.78;;;4.32;;
18947;SDS011;9607;51.600;7.558;2023-07-22T04:36:12;6.15;;;5.50;;
18947;SDS011;9607;51.600;7.558;2023-07-22T04:38:39;6.35;;;5.05;;
18947;SDS011;9607;51.600;7.558;2023-07-22T04:41:07;5.45;;;4.95;;
18947;SDS011;9607;51.600;7.558;2023-07-22T04:43:34;5.82;;;4.80;;
18947;SDS011;9607;51.600;7.558;2023-07-22T04:46:00;6.20;;;5.60;;
18947;SDS011;9607;51.600;7.558;2023-07-22T04:48:27;5.68;;;5.05;;
18947;SDS011;9607;51.600;7.558;2023-07-22T04:50:55;5.32;;;4.30;;
18947;SDS011;9607;51.600;7.558;2023-07-22T04:53:22;5.13;;;4.63;;
18947;SDS011;9607;51.600;7.558;2023-07-22T04:55:49;5.60;;;5.00;;
18947;SDS011;9607;51.600;7.558;2023-07-22T04:58:15;5.10;;;4.60;;
18947;SDS011;9607;51.600;7.558;2023-07-22T05:00:42;5.32;;;4.82;;
18947;SDS011;9607;51.600;7.558;2023-07-22T05:03:09;5.40;;;4.88;;
18947;SDS011;9607;51.600;7.558;2023-07-22T05:05:36;5.38;;;4.88;;
18947;SDS011;9607;51.600;7.558;2023-07-22T05:08:04;4.90;;;4.43;;
18947;SDS011;9607;51.600;7.558;2023-07-22T05:10:32;8.55;;;6.22;;
18947;SDS011;9607;51.600;7.558;2023-07-22T05:12:59;5.35;;;4.85;;
18947;SDS011;9607;51.600;7.558;2023-07-22T05:15:26;5.85;;;5.00;;
18947;SDS011;9607;51.600;7.558;2023-07-22T05:17:52;4.75;;;4.25;;
18947;SDS011;9607;51.600;7.558;2023-07-22T05:20:19;4.72;;;4.32;;
18947;SDS011;9607;51.600;7.558;2023-07-22T05:22:47;4.72;;;4.22;;
18947;SDS011;9607;51.600;7.558;2023-07-22T05:25:16;4.97;;;4.43;;
18947;SDS011;9607;51.600;7.558;2023-07-22T05:27:42;6.45;;;4.97;;
18947;SDS011;9607;51.600;7.558;2023-07-22T05:30:09;5.65;;;4.82;;
18947;SDS011;9607;51.600;7.558;2023-07-22T05:32:36;5.45;;;4.80;;
18947;SDS011;9607;51.600;7.558;2023-07-22T05:35:03;5.50;;;4.75;;
18947;SDS011;9607;51.600;7.558;2023-07-22T05:37:35;5.10;;;4.55;;
18947;SDS011;9607;51.600;7.558;2023-07-22T05:40:02;5.63;;;4.95;;
18947;SDS011;9607;51.600;7.558;2023-07-22T05:42:30;5.97;;;5.38;;
18947;SDS011;9607;51.600;7.558;2023-07-22T05:44:57;5.70;;;5.07;;
18947;SDS011;9607;51.600;7.558;2023-07-22T05:47:24;4.78;;;4.35;;
18947;SDS011;9607;51.600;7.558;2023-07-22T05:49:51;6.18;;;5.57;;
18947;SDS011;9607;51.600;7.558;2023-07-22T05:52:18;6.90;;;5.20;;
18947;SDS011;9607;51.600;7.558;2023-07-22T05:54:44;8.15;;;5.85;;
18947;SDS011;9607;51.600;7.558;2023-07-22T05:57:11;7.35;;;5.40;;
18947;SDS011;9607;51.600;7.558;2023-07-22T05:59:39;7.40;;;5.43;;
18947;SDS011;9607;51.600;7.558;2023-07-22T06:02:07;8.10;;;5.88;;
18947;SDS011;9607;51.600;7.558;2023-07-22T06:04:35;5.22;;;4.47;;
18947;SDS011;9607;51.600;7.558;2023-07-22T06:07:02;6.82;;;4.78;;
18947;SDS011;9607;51.600;7.558;2023-07-22T06:09:29;6.82;;;5.28;;
18947;SDS011;9607;51.600;7.558;2023-07-22T06:11:55;4.78;;;4.28;;
18947;SDS011;9607;51.600;7.558;2023-07-22T06:14:22;4.80;;;4.30;;
18947;SDS011;9607;51.600;7.558;2023-07-22T06:16:50;6.60;;;5.32;;
18947;SDS011;9607;51.600;7.558;2023-07-22T06:19:18;5.90;;;5.07;;
18947;SDS011;9607;51.600;7.558;2023-07-22T06:21:44;5.32;;;4.50;;
18947;SDS011;9607;51.600;7.558;2023-07-22T06:24:11;4.97;;;4.47;;
18947;SDS011;9607;51.600;7.558;2023-07-22T06:26:41;6.38;;;4.85;;
18947;SDS011;9607;51.600;7.558;2023-07-22T06:29:07;5.18;;;4.50;;
18947;SDS011;9607;51.600;7.558;2023-07-22T06:31:34;5.05;;;4.55;;
18947;SDS011;9607;51.600;7.558;2023-07-22T06:34:02;6.40;;;4.78;;
18947;SDS011;9607;51.600;7.558;2023-07-22T06:36:29;6.22;;;5.53;;
18947;SDS011;9607;51.600;7.558;2023-07-22T06:38:56;7.20;;;4.45;;
18947;SDS011;9607;51.600;7.558;2023-07-22T06:41:23;6.30;;;5.10;;
18947;SDS011;9607;51.600;7.558;2023-07-22T06:43:50;5.93;;;4.78;;
18947;SDS011;9607;51.600;7.558;2023-07-22T06:46:17;7.88;;;5.93;;
18947;SDS011;9607;51.600;7.558;2023-07-22T06:48:44;6.43;;;5.22;;
18947;SDS011;9607;51.600;7.558;2023-07-22T06:51:12;8.18;;;5.82;;
18947;SDS011;9607;51.600;7.558;2023-07-22T06:53:39;7.00;;;5.45;;
18947;SDS011;9607;51.600;7.558;2023-07-22T06:56:06;7.75;;;6.25;;
18947;SDS011;9607;51.600;7.558;2023-07-22T06:58:32;6.05;;;5.32;;
18947;SDS011;9607;51.600;7.558;2023-07-22T07:00:59;8.38;;;6.15;;
18947;SDS011;9607;51.600;7.558;2023-07-22T07:03:26;6.30;;;5.68;;
18947;SDS011;9607;51.600;7.558;2023-07-22T07:05:53;7.40;;;5.53;;
18947;SDS011;9607;51.600;7.558;2023-07-22T07:08:22;6.38;;;4.97;;
18947;SDS011;9607;51.600;7.558;2023-07-22T07:10:49;5.63;;;4.65;;
18947;SDS011;9607;51.600;7.558;2023-07-22T07:13:17;5.22;;;4.72;;
18947;SDS011;9607;51.600;7.558;2023-07-22T07:15:45;5.13;;;4.63;;
18947;SDS011;9607;51.600;7.558;2023-07-22T07:18:13;6.90;;;5.82;;
18947;SDS011;9607;51.600;7.558;2023-07-22T07:20:40;8.50;;;6.53;;
18947;SDS011;9607;51.600;7.558;2023-07-22T07:23:07;7.03;;;5.55;;
18947;SDS011;9607;51.600;7.558;2023-07-22T07:25:35;8.30;;;5.38;;
18947;SDS011;9607;51.600;7.558;2023-07-22T07:28:02;10.02;;;6.50;;
18947;SDS011;9607;51.600;7.558;2023-07-22T07:30:29;8.88;;;6.60;;
18947;SDS011;9607;51.600;7.558;2023-07-22T07:32:56;15.80;;;6.20;;
18947;SDS011;9607;51.600;7.558;2023-07-22T07:35:23;10.32;;;6.28;;
18947;SDS011;9607;51.600;7.558;2023-07-22T07:37:50;8.93;;;6.10;;
18947;SDS011;9607;51.600;7.558;2023-07-22T07:40:17;8.38;;;6.55;;
18947;SDS011;9607;51.600;7.558;2023-07-22T07:42:45;8.07;;;5.93;;
18947;SDS011;9607;51.600;7.558;2023-07-22T07:45:12;6.18;;;5.50;;
18947;SDS011;9607;51.600;7.558;2023-07-22T07:47:39;7.57;;;5.57;;
18947;SDS011;9607;51.600;7.558;2023-07-22T07:50:06;10.07;;;6.30;;
18947;SDS011;9607;51.600;7.558;2023-07-22T07:52:33;5.97;;;5.38;;
18947;SDS011;9607;51.600;7.558;2023-07-22T07:55:00;7.70;;;6.82;;
18947;SDS011;9607;51.600;7.558;2023-07-22T07:57:27;10.38;;;5.38;;
18947;SDS011;9607;51.600;7.558;2023-07-22T07:59:55;8.40;;;6.22;;
18947;SDS011;9607;51.600;7.558;2023-07-22T08:02:22;7.80;;;6.45;;
18947;SDS011;9607;51.600;7.558;2023-07-22T08:04:49;8.88;;;6.22;;
18947;SDS011;9607;51.600;7.558;2023-07-22T08:07:16;7.40;;;6.32;;
18947;SDS011;9607;51.600;7.558;2023-07-22T08:09:43;9.40;;;6.40;;
18947;SDS011;9607;51.600;7.558;2023-07-22T08:12:13;9.13;;;6.13;;
18947;SDS011;9607;51.600;7.558;2023-07-22T08:14:41;10.45;;;6.30;;
18947;SDS011;9607;51.600;7.558;2023-07-22T08:17:09;9.50;;;6.50;;
18947;SDS011;9607;51.600;7.558;2023-07-22T08:19:36;7.88;;;5.68;;
18947;SDS011;9607;51.600;7.558;2023-07-22T08:22:03;7.22;;;5.78;;
18947;SDS011;9607;51.600;7.558;2023-07-22T08:24:31;6.28;;;5.68;;
18947;SDS011;9607;51.600;7.558;2023-07-22T08:26:58;6.57;;;5.47;;
18947;SDS011;9607;51.600;7.558;2023-07-22T08:29:25;5.78;;;5.25;;
18947;SDS011;9607;51.600;7.558;2023-07-22T08:31:51;7.90;;;5.65;;
18947;SDS011;9607;51.600;7.558;2023-07-22T08:34:19;5.95;;;5.03;;
18947;SDS011;9607;51.600;7.558;2023-07-22T08:36:46;8.95;;;6.25;;
18947;SDS011;9607;51.600;7.558;2023-07-22T08:39:14;6.60;;;5.47;;
18947;SDS011;9607;51.600;7.558;2023-07-22T08:41:41;8.95;;;6.03;;
18947;SDS011;9607;51.600;7.558;2023-07-22T08:44:13;7.05;;;5.97;;
18947;SDS011;9607;51.600;7.558;2023-07-22T08:46:45;7.55;;;6.13;;
18947;SDS011;9607;51.600;7.558;2023-07-22T08:49:12;5.30;;;4.80;;
18947;SDS011;9607;51.600;7.558;2023-07-22T08:51:42;6.13;;;5.53;;
18947;SDS011;9607;51.600;7.558;2023-07-22T08:54:11;6.38;;;5.45;;
18947;SDS011;9607;51.600;7.558;2023-07-22T08:56:39;6.35;;;5.47;;
18947;SDS011;9607;51.600;7.558;2023-07-22T08:59:07;7.18;;;5.65;;
18947;SDS011;9607;51.600;7.558;2023-07-22T09:01:35;7.10;;;5.05;;
18947;SDS011;9607;51.600;7.558;2023-07-22T09:04:04;4.97;;;4.47;;
18947;SDS011;9607;51.600;7.558;2023-07-22T09:06:31;5.90;;;5.18;;
18947;SDS011;9607;51.600;7.558;2023-07-22T09:08:59;8.98;;;5.70;;
18947;SDS011;9607;51.600;7.558;2023-07-22T09:11:29;8.10;;;5.20;;
18947;SDS011;9607;51.600;7.558;2023-07-22T09:13:56;7.32;;;5.07;;
18947;SDS011;9607;51.600;7.558;2023-07-22T09:16:24;5.68;;;5.15;;
18947;SDS011;9607;51.600;7.558;2023-07-22T09:18:54;6.47;;;5.40;;
18947;SDS011;9607;51.600;7.558;2023-07-22T09:21:21;5.80;;;5.15;;
18947;SDS011;9607;51.600;7.558;2023-07-22T09:23:48;4.85;;;4.22;;
18947;SDS011;9607;51.600;7.558;2023-07-22T09:26:17;5.82;;;5.22;;
18947;SDS011;9607;51.600;7.558;2023-07-22T09:28:47;7.65;;;5.50;;
18947;SDS011;9607;51.600;7.558;2023-07-22T09:31:15;6.30;;;5.05;;
18947;SDS011;9607;51.600;7.558;2023-07-22T09:33:42;4.90;;;4.40;;
18947;SDS011;9607;51.600;7.558;2023-07-22T09:36:09;7.38;;;4.70;;
18947;SDS011;9607;51.600;7.558;2023-07-22T09:38:37;4.82;;;4.25;;
18947;SDS011;9607;51.600;7.558;2023-07-22T09:41:04;5.45;;;4.93;;
18947;SDS011;9607;51.600;7.558;2023-07-22T09:43:35;7.25;;;5.32;;
18947;SDS011;9607;51.600;7.558;2023-07-22T09:46:06;6.15;;;5.53;;
18947;SDS011;9607;51.600;7.558;2023-07-22T09:48:41;5.93;;;4.35;;
18947;SDS011;9607;51.600;7.558;2023-07-22T09:51:12;4.95;;;4.45;;
18947;SDS011;9607;51.600;7.558;2023-07-22T09:53:46;5.10;;;4.60;;
18947;SDS011;9607;51.600;7.558;2023-07-22T09:56:14;5.32;;;4.60;;
18947;SDS011;9607;51.600;7.558;2023-07-22T09:58:43;8.10;;;5.03;;
18947;SDS011;9607;51.600;7.558;2023-07-22T10:01:11;5.63;;;4.50;;
18947;SDS011;9607;51.600;7.558;2023-07-22T10:03:42;4.50;;;4.10;;
18947;SDS011;9607;51.600;7.558;2023-07-22T10:06:10;5.25;;;4.25;;
18947;SDS011;9607;51.600;7.558;2023-07-22T10:08:38;6.05;;;4.20;;
18947;SDS011;9607;51.600;7.558;2023-07-22T10:11:06;4.90;;;4.05;;
18947;SDS011;9607;51.600;7.558;2023-07-22T10:13:37;5.07;;;4.57;;
18947;SDS011;9607;51.600;7.558;2023-07-22T10:16:06;6.53;;;4.43;;
18947;SDS011;9607;51.600;7.558;2023-07-22T10:18:33;5.72;;;5.13;;
18947;SDS011;9607;51.600;7.558;2023-07-22T10:21:02;6.45;;;5.20;;
18947;SDS011;9607;51.600;7.558;2023-07-22T10:23:29;7.18;;;5.43;;
18947;SDS011;9607;51.600;7.558;2023-07-22T10:25:57;6.50;;;5.18;;
18947;SDS011;9607;51.600;7.558;2023-07-22T10:28:25;4.97;;;4.13;;
18947;SDS011;9607;51.600;7.558;2023-07-22T10:30:52;5.53;;;4.43;;
18947;SDS011;9607;51.600;7.558;2023-07-22T10:33:21;6.03;;;4.65;;
18947;SDS011;9607;51.600;7.558;2023-07-22T10:36:01;4.60;;;4.07;;
18947;SDS011;9607;51.600;7.558;2023-07-22T10:38:29;5.75;;;4.82;;
18947;SDS011;9607;51.600;7.558;2023-07-22T10:40:56;4.15;;;3.65;;
18947;SDS011;9607;51.600;7.558;2023-07-22T10:43:24;4.03;;;3.63;;
18947;SDS011;9607;51.600;7.558;2023-07-22T10:45:54;5.13;;;4.07;;
18947;SDS011;9607;51.600;7.558;2023-07-22T10:48:24;4.18;;;3.40;;
18947;SDS011;9607;51.600;7.558;2023-07-22T10:50:53;5.88;;;3.70;;
18947;SDS011;9607;51.600;7.558;2023-07-22T10:53:28;4.50;;;3.80;;
18947;SDS011;9607;51.600;7.558;2023-07-22T10:56:02;4.95;;;3.33;;
18947;SDS011;9607;51.600;7.558;2023-07-22T10:58:33;3.70;;;3.10;;
18947;SDS011;9607;51.600;7.558;2023-07-22T11:01:24;3.88;;;3.03;;
18947;SDS011;9607;51.600;7.558;2023-07-22T11:04:06;3.45;;;3.15;;
18947;SDS011;9607;51.600;7.558;2023-07-22T11:06:36;4.55;;;2.85;;
18947;SDS011;9607;51.600;7.558;2023-07-22T11:09:03;5.03;;;3.97;;
18947;SDS011;9607;51.600;7.558;2023-07-22T11:11:35;4.18;;;3.40;;
18947;SDS011;9607;51.600;7.558;2023-07-22T11:14:15;4.97;;;3.30;;
18947;SDS011;9607;51.600;7.558;2023-07-22T11:16:43;3.50;;;3.20;;
18947;SDS011;9607;51.600;7.558;2023-07-22T11:19:13;8.18;;;4.22;;
18947;SDS011;9607;51.600;7.558;2023-07-22T11:21:41;4.07;;;3.67;;
18947;SDS011;9607;51.600;7.558;2023-07-22T11:24:08;3.40;;;3.10;;
18947;SDS011;9607;51.600;7.558;2023-07-22T11:26:35;5.15;;;3.85;;
18947;SDS011;9607;51.600;7.558;2023-07-22T11:29:03;3.58;;;3.08;;
18947;SDS011;9607;51.600;7.558;2023-07-22T11:31:31;3.25;;;2.50;;
18947;SDS011;9607;51.600;7.558;2023-07-22T11:33:58;4.22;;;3.30;;
18947;SDS011;9607;51.600;7.558;2023-07-22T11:36:26;3.72;;;3.10;;
18947;SDS011;9607;51.600;7.558;2023-07-22T11:38:53;3.60;;;3.30;;
18947;SDS011;9607;51.600;7.558;2023-07-22T11:41:27;4.80;;;3.30;;
18947;SDS011;9607;51.600;7.558;2023-07-22T11:43:56;4.90;;;3.05;;
18947;SDS011;9607;51.600;7.558;2023-07-22T11:46:23;5.95;;;2.75;;
18947;SDS011;9607;51.600;7.558;2023-07-22T11:48:50;5.47;;;3.10;;
18947;SDS011;9607;51.600;7.558;2023-07-22T11:51:18;3.45;;;3.15;;
18947;SDS011;9607;51.600;7.558;2023-07-22T11:53:48;4.10;;;3.28;;
18947;SDS011;9607;51.600;7.558;2023-07-22T11:56:23;3.58;;;3.28;;
18947;SDS011;9607;51.600;7.558;2023-07-22T11:58:52;4.45;;;3.13;;
18947;SDS011;9607;51.600;7.558;2023-07-22T12:01:20;3.53;;;2.90;;
18947;SDS011;9607;51.600;7.558;2023-07-22T12:03:47;3.17;;;2.53;;
18947;SDS011;9607;51.600;7.558;2023-07-22T12:06:14;3.25;;;2.55;;
18947;SDS011;9607;51.600;7.558;2023-07-22T12:08:45;5.10;;;2.60;;
18947;SDS011;9607;51.600;7.558;2023-07-22T12:11:17;3.38;;;2.35;;
18947;SDS011;9607;51.600;7.558;2023-07-22T12:13:45;2.30;;;2.00;;
18947;SDS011;9607;51.600;7.558;2023-07-22T12:16:20;3.95;;;2.22;;
18947;SDS011;9607;51.600;7.558;2023-07-22T12:18:47;2.33;;;2.03;;
18947;SDS011;9607;51.600;7.558;2023-07-22T12:21:14;2.28;;;2.08;;
18947;SDS011;9607;51.600;7.558;2023-07-22T12:23:42;2.75;;;2.30;;
18947;SDS011;9607;51.600;7.558;2023-07-22T12:26:09;2.00;;;1.85;;
18947;SDS011;9607;51.600;7.558;2023-07-22T12:28:37;2.90;;;2.00;;
18947;SDS011;9607;51.600;7.558;2023-07-22T12:31:04;1.90;;;1.80;;
18947;SDS011;9607;51.600;7.558;2023-07-22T12:33:31;3.60;;;2.15;;
18947;SDS011;9607;51.600;7.558;2023-07-22T12:35:57;2.75;;;2.30;;
18947;SDS011;9607;51.600;7.558;2023-07-22T12:38:24;2.58;;;1.90;;
18947;SDS011;9607;51.600;7.558;2023-07-22T12:40:51;3.00;;;1.83;;
18947;SDS011;9607;51.600;7.558;2023-07-22T12:43:18;1.75;;;1.60;;
18947;SDS011;9607;51.600;7.558;2023-07-22T12:45:46;2.20;;;1.70;;
18947;SDS011;9607;51.600;7.558;2023-07-22T12:48:12;2.70;;;2.03;;
18947;SDS011;9607;51.600;7.558;2023-07-22T12:50:39;3.20;;;1.95;;
18947;SDS011;9607;51.600;7.558;2023-07-22T12:53:06;3.33;;;1.83;;
18947;SDS011;9607;51.600;7.558;2023-07-22T12:55:34;2.80;;;1.80;;
18947;SDS011;9607;51.600;7.558;2023-07-22T12:58:00;2.22;;;2.00;;
18947;SDS011;9607;51.600;7.558;2023-07-22T13:00:27;2.10;;;1.90;;
18947;SDS011;9607;51.600;7.558;2023-07-22T13:02:56;1.65;;;1.52;;
18947;SDS011;9607;51.600;7.558;2023-07-22T13:05:22;1.92;;;1.73;;
18947;SDS011;9607;51.600;7.558;2023-07-22T13:07:50;2.03;;;1.83;;
18947;SDS011;9607;51.600;7.558;2023-07-22T13:10:18;4.20;;;1.77;;
18947;SDS011;9607;51.600;7.558;2023-07-22T13:12:46;3.25;;;2.30;;
18947;SDS011;9607;51.600;7.558;2023-07-22T13:15:13;2.45;;;2.13;;
18947;SDS011;9607;51.600;7.558;2023-07-22T13:17:40;4.07;;;1.98;;
18947;SDS011;9607;51.600;7.558;2023-07-22T13:20:09;4.18;;;1.92;;
18947;SDS011;9607;51.600;7.558;2023-07-22T13:22:36;3.75;;;1.80;;
18947;SDS011;9607;51.600;7.558;2023-07-22T13:25:04;2.97;;;1.90;;
18947;SDS011;9607;51.600;7.558;2023-07-22T13:27:31;2.47;;;2.22;;
18947;SDS011;9607;51.600;7.558;2023-07-22T13:29:58;1.65;;;1.38;;
18947;SDS011;9607;51.600;7.558;2023-07-22T13:32:26;2.75;;;1.70;;
18947;SDS011;9607;51.600;7.558;2023-07-22T13:34:53;3.70;;;1.58;;
18947;SDS011;9607;51.600;7.558;2023-07-22T13:37:31;1.55;;;1.45;;
18947;SDS011;9607;51.600;7.558;2023-07-22T13:39:59;1.92;;;1.40;;
18947;SDS011;9607;51.600;7.558;2023-07-22T13:42:25;3.17;;;1.70;;
18947;SDS011;9607;51.600;7.558;2023-07-22T13:44:52;2.55;;;1.70;;
18947;SDS011;9607;51.600;7.558;2023-07-22T13:47:19;2.05;;;1.60;;
18947;SDS011;9607;51.600;7.558;2023-07-22T13:49:46;1.90;;;1.50;;
18947;SDS011;9607;51.600;7.558;2023-07-22T13:52:12;2.65;;;2.25;;
18947;SDS011;9607;51.600;7.558;2023-07-22T13:54:40;3.28;;;1.70;;
18947;SDS011;9607;51.600;7.558;2023-07-22T13:57:07;2.03;;;1.80;;
18947;SDS011;9607;51.600;7.558;2023-07-22T13:59:34;1.80;;;1.70;;
18947;SDS011;9607;51.600;7.558;2023-07-22T14:02:01;2.38;;;1.92;;
18947;SDS011;9607;51.600;7.558;2023-07-22T14:04:31;2.35;;;1.60;;
18947;SDS011;9607;51.600;7.558;2023-07-22T14:06:58;2.95;;;1.90;;
18947;SDS011;9607;51.600;7.558;2023-07-22T14:09:25;3.05;;;1.70;;
18947;SDS011;9607;51.600;7.558;2023-07-22T14:11:53;4.25;;;2.03;;
18947;SDS011;9607;51.600;7.558;2023-07-22T14:14:20;2.38;;;2.00;;
18947;SDS011;9607;51.600;7.558;2023-07-22T14:16:53;2.78;;;2.30;;
18947;SDS011;9607;51.600;7.558;2023-07-22T14:19:20;2.70;;;2.17;;
18947;SDS011;9607;51.600;7.558;2023-07-22T14:21:47;3.08;;;2.10;;
18947;SDS011;9607;51.600;7.558;2023-07-22T14:24:13;2.05;;;1.80;;
18947;SDS011;9607;51.600;7.558;2023-07-22T14:26:40;3.22;;;1.95;;
18947;SDS011;9607;51.600;7.558;2023-07-22T14:29:08;2.20;;;2.00;;
18947;SDS011;9607;51.600;7.558;2023-07-22T14:31:35;5.18;;;2.00;;
18947;SDS011;9607;51.600;7.558;2023-07-22T14:34:02;3.50;;;2.13;;
18947;SDS011;9607;51.600;7.558;2023-07-22T14:36:29;3.72;;;2.38;;
18947;SDS011;9607;51.600;7.558;2023-07-22T14:38:55;2.90;;;2.60;;
18947;SDS011;9607;51.600;7.558;2023-07-22T14:41:23;4.07;;;2.42;;
18947;SDS011;9607;51.600;7.558;2023-07-22T14:43:50;3.80;;;3.13;;
18947;SDS011;9607;51.600;7.558;2023-07-22T14:46:18;2.85;;;2.65;;
18947;SDS011;9607;51.600;7.558;2023-07-22T14:48:45;3.05;;;2.55;;
18947;SDS011;9607;51.600;7.558;2023-07-22T14:51:11;3.10;;;2.28;;
18947;SDS011;9607;51.600;7.558;2023-07-22T14:53:39;2.35;;;2.15;;
18947;SDS011;9607;51.600;7.558;2023-07-22T14:56:06;2.72;;;2.10;;
18947;SDS011;9607;51.600;7.558;2023-07-22T14:58:33;2.05;;;1.85;;
18947;SDS011;9607;51.600;7.558;2023-07-22T15:00:59;3.70;;;2.25;;
18947;SDS011;9607;51.600;7.558;2023-07-22T15:03:28;2.15;;;1.90;;